sensor_id;sensor_type;location;lat;lon;timestamp;pressure;altitude;pressure_sealevel;temperature;humidity
10510;BME280;5303;53.266;10.410;2023-07-31T00:02:22;100679.69;;;14.91;100.00
10510;BME280;5303;53.266;10.410;2023-07-31T00:04:47;100670.88;;;14.89;100.00
10510;BME280;5303;53.266;10.410;2023-07-31T00:07:14;100690.38;;;14.88;100.00
10510;BME280;5303;53.266;10.410;2023-07-31T00:09:39;100691.19;;;14.91;100.00
10510;BME280;5303;53.266;10.410;2023-07-31T00:12:05;100685.81;;;14.94;100.00
10510;BME280;5303;53.266;10.410;2023-07-31T00:14:30;100683.13;;;14.96;100.00
10510;BME280;5303;53.266;10.410;2023-07-31T00:16:55;100670.72;;;14.96;100.00
10510;BME280;5303;53.266;10.410;2023-07-31T00:19:21;100673.28;;;14.99;100.00
10510;BME280;5303;53.266;10.410;2023-07-31T00:21:46;100667.97;;;14.99;100.00
10510;BME280;5303;53.266;10.410;2023-07-31T00:24:11;100671.53;;;14.98;100.00
10510;BME280;5303;53.266;10.410;2023-07-31T00:26:36;100671.41;;;15.05;100.00
10510;BME280;5303;53.266;10.410;2023-07-31T00:29:01;100656.25;;;15.08;100.00
10510;BME280;5303;53.266;10.410;2023-07-31T00:31:27;100661.50;;;15.11;100.00
10510;BME280;5303;53.266;10.410;2023-07-31T00:33:52;100658.81;;;15.13;100.00
10510;BME280;5303;53.266;10.410;2023-07-31T00:36:17;100652.84;;;15.03;100.00
10510;BME280;5303;53.266;10.410;2023-07-31T00:38:43;100649.19;;;15.07;100.00
10510;BME280;5303;53.266;10.410;2023-07-31T00:41:08;100644.88;;;15.02;100.00
10510;BME280;5303;53.266;10.410;2023-07-31T00:43:34;100645.75;;;15.04;100.00
10510;BME280;5303;53.266;10.410;2023-07-31T00:45:59;100637.69;;;15.07;100.00
10510;BME280;5303;53.266;10.410;2023-07-31T00:48:25;100632.31;;;15.10;100.00
10510;BME280;5303;53.266;10.410;2023-07-31T00:50:50;100640.22;;;15.13;100.00
10510;BME280;5303;53.266;10.410;2023-07-31T00:53:16;100630.41;;;15.15;100.00
10510;BME280;5303;53.266;10.410;2023-07-31T00:55:42;100629.47;;;15.17;100.00
10510;BME280;5303;53.266;10.410;2023-07-31T00:58:08;100626.75;;;15.19;100.00
10510;BME280;5303;53.266;10.410;2023-07-31T01:00:33;100623.19;;;15.20;100.00
10510;BME280;5303;53.266;10.410;2023-07-31T01:02:59;100630.19;;;15.24;100.00
10510;BME280;5303;53.266;10.410;2023-07-31T01:08:32;100618.47;;;15.33;100.00
10510;BME280;5303;53.266;10.410;2023-07-31T01:11:04;100612.19;;;15.35;100.00
10510;BME280;5303;53.266;10.410;2023-07-31T01:13:32;100614.66;;;15.41;100.00
10510;BME280;5303;53.266;10.410;2023-07-31T01:15:57;100607.31;;;15.51;100.00
10510;BME280;5303;53.266;10.410;2023-07-31T01:18:23;100607.31;;;15.51;100.00
10510;BME280;5303;53.266;10.410;2023-07-31T01:20:54;100612.53;;;15.55;100.00
10510;BME280;5303;53.266;10.410;2023-07-31T01:26:34;100611.72;;;15.53;100.00
10510;BME280;5303;53.266;10.410;2023-07-31T01:29:17;100607.22;;;15.55;100.00
10510;BME280;5303;53.266;10.410;2023-07-31T01:31:49;100607.25;;;15.54;100.00
10510;BME280;5303;53.266;10.410;2023-07-31T01:34:17;100601.81;;;15.59;100.00
10510;BME280;5303;53.266;10.410;2023-07-31T01:36:43;100599.25;;;15.55;100.00
10510;BME280;5303;53.266;10.410;2023-07-31T01:39:09;100602.66;;;15.61;100.00
10510;BME280;5303;53.266;10.410;2023-07-31T01:41:34;100596.59;;;15.55;100.00
10510;BME280;5303;53.266;10.410;2023-07-31T01:44:00;100601.81;;;15.59;100.00
10510;BME280;5303;53.266;10.410;2023-07-31T01:46:25;100593.06;;;15.55;100.00
10510;BME280;5303;53.266;10.410;2023-07-31T01:48:50;100586.78;;;15.57;100.00
10510;BME280;5303;53.266;10.410;2023-07-31T01:51:16;100578.03;;;15.52;100.00
10510;BME280;5303;53.266;10.410;2023-07-31T01:53:41;100583.44;;;15.49;100.00
10510;BME280;5303;53.266;10.410;2023-07-31T01:56:06;100580.72;;;15.51;100.00
10510;BME280;5303;53.266;10.410;2023-07-31T01:58:31;100579.81;;;15.52;100.00
10510;BME280;5303;53.266;10.410;2023-07-31T02:00:57;100577.22;;;15.50;100.00
10510;BME280;5303;53.266;10.410;2023-07-31T02:03:22;100574.59;;;15.49;100.00
10510;BME280;5303;53.266;10.410;2023-07-31T02:05:48;100575.50;;;15.48;100.00
10510;BME280;5303;53.266;10.410;2023-07-31T02:08:14;100573.72;;;15.48;100.00
10510;BME280;5303;53.266;10.410;2023-07-31T02:10:40;100568.34;;;15.50;100.00
10510;BME280;5303;53.266;10.410;2023-07-31T02:13:05;100568.50;;;15.45;100.00
10510;BME280;5303;53.266;10.410;2023-07-31T02:15:30;100575.56;;;15.46;100.00
10510;BME280;5303;53.266;10.410;2023-07-31T02:17:56;100567.41;;;15.52;100.00
10510;BME280;5303;53.266;10.410;2023-07-31T02:20:21;100567.25;;;15.59;100.00
10510;BME280;5303;53.266;10.410;2023-07-31T02:22:47;100565.50;;;15.57;100.00
10510;BME280;5303;53.266;10.410;2023-07-31T02:25:12;100561.88;;;15.62;100.00
10510;BME280;5303;53.266;10.410;2023-07-31T02:27:37;100559.41;;;15.52;100.00
10510;BME280;5303;53.266;10.410;2023-07-31T02:30:03;100561.31;;;15.49;100.00
10510;BME280;5303;53.266;10.410;2023-07-31T02:32:28;100559.25;;;15.60;100.00
10510;BME280;5303;53.266;10.410;2023-07-31T02:34:53;100542.38;;;15.61;100.00
10510;BME280;5303;53.266;10.410;2023-07-31T02:37:19;100554.03;;;15.55;100.00
10510;BME280;5303;53.266;10.410;2023-07-31T02:39:44;100550.56;;;15.53;100.00
10510;BME280;5303;53.266;10.410;2023-07-31T02:42:09;100554.16;;;15.51;100.00
10510;BME280;5303;53.266;10.410;2023-07-31T02:44:34;100550.72;;;15.47;100.00
10510;BME280;5303;53.266;10.410;2023-07-31T02:47:00;100548.00;;;15.49;100.00
10510;BME280;5303;53.266;10.410;2023-07-31T02:49:25;100548.06;;;15.47;100.00
10510;BME280;5303;53.266;10.410;2023-07-31T02:51:50;100540.94;;;15.48;100.00
10510;BME280;5303;53.266;10.410;2023-07-31T02:54:15;100532.97;;;15.48;100.00
10510;BME280;5303;53.266;10.410;2023-07-31T02:56:41;100539.16;;;15.48;100.00
10510;BME280;5303;53.266;10.410;2023-07-31T02:59:06;100539.16;;;15.48;100.00
10510;BME280;5303;53.266;10.410;2023-07-31T03:01:31;100545.34;;;15.49;100.00
10510;BME280;5303;53.266;10.410;2023-07-31T03:03:57;100545.41;;;15.47;100.00
10510;BME280;5303;53.266;10.410;2023-07-31T03:06:22;100546.13;;;15.54;100.00
10510;BME280;5303;53.266;10.410;2023-07-31T03:08:47;100544.38;;;15.51;100.00
10510;BME280;5303;53.266;10.410;2023-07-31T03:11:12;100543.47;;;15.52;100.00
10510;BME280;5303;53.266;10.410;2023-07-31T03:13:38;100543.47;;;15.52;100.00
10510;BME280;5303;53.266;10.410;2023-07-31T03:16:03;100542.66;;;15.50;100.00
10510;BME280;5303;53.266;10.410;2023-07-31T03:18:28;100538.16;;;15.52;100.00
10510;BME280;5303;53.266;10.410;2023-07-31T03:20:54;100534.63;;;15.52;100.00
10510;BME280;5303;53.266;10.410;2023-07-31T03:23:19;100528.38;;;15.54;100.00
10510;BME280;5303;53.266;10.410;2023-07-31T03:26:01;100525.63;;;15.57;100.00
10510;BME280;5303;53.266;10.410;2023-07-31T03:28:31;100521.22;;;15.56;100.00
10510;BME280;5303;53.266;10.410;2023-07-31T03:30:59;100518.13;;;15.72;100.00
10510;BME280;5303;53.266;10.410;2023-07-31T03:33:25;100521.66;;;15.72;100.00
10510;BME280;5303;53.266;10.410;2023-07-31T03:35:51;100513.69;;;15.74;100.00
10510;BME280;5303;53.266;10.410;2023-07-31T03:38:16;100506.56;;;15.73;100.00
10510;BME280;5303;53.266;10.410;2023-07-31T03:40:41;100509.25;;;15.73;100.00
10510;BME280;5303;53.266;10.410;2023-07-31T03:43:06;100505.44;;;15.81;100.00
10510;BME280;5303;53.266;10.410;2023-07-31T03:45:32;100504.50;;;15.84;100.00
10510;BME280;5303;53.266;10.410;2023-07-31T03:47:57;100499.47;;;15.75;100.00
10510;BME280;5303;53.266;10.410;2023-07-31T03:50:22;100492.28;;;15.77;100.00
10510;BME280;5303;53.266;10.410;2023-07-31T03:52:48;100487.69;;;15.82;100.00
10510;BME280;5303;53.266;10.410;2023-07-31T03:55:13;100487.84;;;15.77;100.00
10510;BME280;5303;53.266;10.410;2023-07-31T03:57:38;100483.22;;;15.84;100.00
10510;BME280;5303;53.266;10.410;2023-07-31T04:00:05;100492.97;;;15.83;100.00
10510;BME280;5303;53.266;10.410;2023-07-31T04:02:31;100499.25;;;15.81;100.00
10510;BME280;5303;53.266;10.410;2023-07-31T04:04:56;100493.13;;;15.79;100.00
10510;BME280;5303;53.266;10.410;2023-07-31T04:07:24;100504.56;;;15.81;100.00
10510;BME280;5303;53.266;10.410;2023-07-31T04:09:49;100493.94;;;15.81;100.00
10510;BME280;5303;53.266;10.410;2023-07-31T04:12:14;100495.88;;;15.76;100.00
10510;BME280;5303;53.266;10.410;2023-07-31T04:14:40;100498.59;;;15.74;100.00
10510;BME280;5303;53.266;10.410;2023-07-31T04:17:05;100496.78;;;15.75;100.00
10510;BME280;5303;53.266;10.410;2023-07-31T04:19:30;100500.53;;;15.68;100.00
10510;BME280;5303;53.266;10.410;2023-07-31T04:21:56;100511.13;;;15.69;100.00
10510;BME280;5303;53.266;10.410;2023-07-31T04:24:21;100518.19;;;15.70;100.00
10510;BME280;5303;53.266;10.410;2023-07-31T04:26:53;100521.88;;;15.66;100.00
10510;BME280;5303;53.266;10.410;2023-07-31T04:29:18;100516.50;;;15.68;100.00
10510;BME280;5303;53.266;10.410;2023-07-31T04:31:45;100515.53;;;15.70;100.00
10510;BME280;5303;53.266;10.410;2023-07-31T04:34:10;100519.06;;;15.71;100.00
10510;BME280;5303;53.266;10.410;2023-07-31T04:36:36;100519.00;;;15.72;100.00
10510;BME280;5303;53.266;10.410;2023-07-31T04:39:02;100508.41;;;15.71;100.00
10510;BME280;5303;53.266;10.410;2023-07-31T04:41:27;100515.44;;;15.73;100.00
10510;BME280;5303;53.266;10.410;2023-07-31T04:43:53;100502.94;;;15.77;100.00
10510;BME280;5303;53.266;10.410;2023-07-31T04:46:18;100494.13;;;15.75;100.00
10510;BME280;5303;53.266;10.410;2023-07-31T04:48:43;100502.06;;;15.76;100.00
10510;BME280;5303;53.266;10.410;2023-07-31T04:51:09;100497.66;;;15.75;100.00
10510;BME280;5303;53.266;10.410;2023-07-31T04:53:35;100493.97;;;15.79;100.00
10510;BME280;5303;53.266;10.410;2023-07-31T04:56:00;100502.06;;;15.76;100.00
10510;BME280;5303;53.266;10.410;2023-07-31T04:58:26;100500.28;;;15.77;100.00
10510;BME280;5303;53.266;10.410;2023-07-31T05:00:51;100495.78;;;15.79;100.00
10510;BME280;5303;53.266;10.410;2023-07-31T05:03:16;100496.69;;;15.78;100.00
10510;BME280;5303;53.266;10.410;2023-07-31T05:05:42;100502.94;;;15.77;100.00
10510;BME280;5303;53.266;10.410;2023-07-31T05:08:07;100502.97;;;15.75;100.00
10510;BME280;5303;53.266;10.410;2023-07-31T05:10:36;100497.56;;;15.78;100.00
10510;BME280;5303;53.266;10.410;2023-07-31T05:13:04;100500.13;;;15.81;100.00
10510;BME280;5303;53.266;10.410;2023-07-31T05:15:29;100490.34;;;15.82;100.00
10510;BME280;5303;53.266;10.410;2023-07-31T05:17:55;100493.88;;;15.84;100.00
10510;BME280;5303;53.266;10.410;2023-07-31T05:20:21;100486.75;;;15.84;100.00
10510;BME280;5303;53.266;10.410;2023-07-31T05:22:46;100484.16;;;15.81;100.00
10510;BME280;5303;53.266;10.410;2023-07-31T05:25:11;100484.13;;;15.83;100.00
10510;BME280;5303;53.266;10.410;2023-07-31T05:27:37;100484.03;;;15.86;100.00
10510;BME280;5303;53.266;10.410;2023-07-31T05:30:02;100474.22;;;15.88;100.00
10510;BME280;5303;53.266;10.410;2023-07-31T05:32:28;100481.19;;;15.92;100.00
10510;BME280;5303;53.266;10.410;2023-07-31T05:34:53;100476.56;;;15.99;100.00
10510;BME280;5303;53.266;10.410;2023-07-31T05:37:19;100480.84;;;16.04;100.00
10510;BME280;5303;53.266;10.410;2023-07-31T05:39:44;100478.78;;;16.12;100.00
10510;BME280;5303;53.266;10.410;2023-07-31T05:42:09;100483.16;;;16.15;100.00
10510;BME280;5303;53.266;10.410;2023-07-31T05:44:35;100471.72;;;16.11;100.00
10510;BME280;5303;53.266;10.410;2023-07-31T05:47:00;100469.75;;;16.18;100.00
10510;BME280;5303;53.266;10.410;2023-07-31T05:49:25;100463.59;;;16.16;100.00
10510;BME280;5303;53.266;10.410;2023-07-31T05:51:51;100462.56;;;16.20;100.00
10510;BME280;5303;53.266;10.410;2023-07-31T05:54:16;100453.53;;;16.26;100.00
10510;BME280;5303;53.266;10.410;2023-07-31T05:56:41;100447.34;;;16.25;100.00
10510;BME280;5303;53.266;10.410;2023-07-31T05:59:08;100449.78;;;16.31;100.00
10510;BME280;5303;53.266;10.410;2023-07-31T06:01:34;100441.75;;;16.33;100.00
10510;BME280;5303;53.266;10.410;2023-07-31T06:03:59;100444.22;;;16.39;100.00
10510;BME280;5303;53.266;10.410;2023-07-31T06:06:24;100440.34;;;16.49;100.00
10510;BME280;5303;53.266;10.410;2023-07-31T06:08:50;100433.78;;;16.59;100.00
10510;BME280;5303;53.266;10.410;2023-07-31T06:11:15;100425.59;;;16.65;100.00
10510;BME280;5303;53.266;10.410;2023-07-31T06:13:40;100430.84;;;16.68;100.00
10510;BME280;5303;53.266;10.410;2023-07-31T06:16:05;100423.66;;;16.70;100.00
10510;BME280;5303;53.266;10.410;2023-07-31T06:18:34;100424.34;;;16.77;100.00
10510;BME280;5303;53.266;10.410;2023-07-31T06:20:59;100426.75;;;16.83;100.00
10510;BME280;5303;53.266;10.410;2023-07-31T06:23:24;100431.94;;;16.88;100.00
10510;BME280;5303;53.266;10.410;2023-07-31T06:25:49;100424.50;;;16.97;100.00
10510;BME280;5303;53.266;10.410;2023-07-31T06:28:15;100433.31;;;16.99;100.00
10510;BME280;5303;53.266;10.410;2023-07-31T06:30:40;100428.72;;;17.03;100.00
10510;BME280;5303;53.266;10.410;2023-07-31T06:33:05;100426.06;;;17.03;100.00
10510;BME280;5303;53.266;10.410;2023-07-31T06:35:30;100422.38;;;17.07;100.00
10510;BME280;5303;53.266;10.410;2023-07-31T06:37:56;100415.66;;;16.95;100.00
10510;BME280;5303;53.266;10.410;2023-07-31T06:40:22;100412.03;;;16.98;100.00
10510;BME280;5303;53.266;10.410;2023-07-31T06:42:47;100403.81;;;17.04;100.00
10510;BME280;5303;53.266;10.410;2023-07-31T06:45:12;100405.53;;;17.07;100.00
10510;BME280;5303;53.266;10.410;2023-07-31T06:47:37;100405.41;;;17.10;100.00
10510;BME280;5303;53.266;10.410;2023-07-31T06:50:03;100407.78;;;17.17;100.00
10510;BME280;5303;53.266;10.410;2023-07-31T06:52:28;100404.72;;;17.28;100.00
10510;BME280;5303;53.266;10.410;2023-07-31T06:55:15;100402.69;;;17.35;100.00
10510;BME280;5303;53.266;10.410;2023-07-31T06:57:43;100391.97;;;17.36;100.00
10510;BME280;5303;53.266;10.410;2023-07-31T07:00:08;100390.13;;;17.38;100.00
10510;BME280;5303;53.266;10.410;2023-07-31T07:02:34;100387.41;;;17.40;100.00
10510;BME280;5303;53.266;10.410;2023-07-31T07:04:59;100385.66;;;17.39;100.00
10510;BME280;5303;53.266;10.410;2023-07-31T07:07:24;100403.16;;;17.46;100.00
10510;BME280;5303;53.266;10.410;2023-07-31T07:09:49;100400.84;;;17.60;100.00
10510;BME280;5303;53.266;10.410;2023-07-31T07:12:15;100386.25;;;17.70;100.00
10510;BME280;5303;53.266;10.410;2023-07-31T07:14:40;100384.38;;;17.72;100.00
10510;BME280;5303;53.266;10.410;2023-07-31T07:17:05;100377.06;;;17.77;100.00
10510;BME280;5303;53.266;10.410;2023-07-31T07:19:31;100388.13;;;17.90;100.00
10510;BME280;5303;53.266;10.410;2023-07-31T07:21:56;100391.09;;;17.82;100.00
10510;BME280;5303;53.266;10.410;2023-07-31T07:24:21;100402.34;;;17.91;100.00
10510;BME280;5303;53.266;10.410;2023-07-31T07:26:47;100406.88;;;17.89;100.00
10510;BME280;5303;53.266;10.410;2023-07-31T07:29:12;100400.53;;;17.69;100.00
10510;BME280;5303;53.266;10.410;2023-07-31T07:31:37;100404.00;;;17.71;100.00
10510;BME280;5303;53.266;10.410;2023-07-31T07:34:02;100403.50;;;17.60;100.00
10510;BME280;5303;53.266;10.410;2023-07-31T07:36:28;100405.59;;;17.52;100.00
10510;BME280;5303;53.266;10.410;2023-07-31T07:38:53;100396.66;;;17.53;100.00
10510;BME280;5303;53.266;10.410;2023-07-31T07:41:18;100401.19;;;17.51;100.00
10510;BME280;5303;53.266;10.410;2023-07-31T07:43:44;100393.13;;;17.52;100.00
10510;BME280;5303;53.266;10.410;2023-07-31T07:46:09;100392.38;;;17.49;100.00
10510;BME280;5303;53.266;10.410;2023-07-31T07:48:34;100402.94;;;17.52;100.00
10510;BME280;5303;53.266;10.410;2023-07-31T07:50:59;100395.66;;;17.55;100.00
10510;BME280;5303;53.266;10.410;2023-07-31T07:53:25;100386.69;;;17.58;100.00
10510;BME280;5303;53.266;10.410;2023-07-31T07:55:50;100387.66;;;17.55;100.00
10510;BME280;5303;53.266;10.410;2023-07-31T07:58:15;100393.72;;;17.61;100.00
10510;BME280;5303;53.266;10.410;2023-07-31T08:00:40;100397.88;;;17.68;100.00
10510;BME280;5303;53.266;10.410;2023-07-31T08:03:06;100395.78;;;17.76;100.00
10510;BME280;5303;53.266;10.410;2023-07-31T08:05:31;100396.91;;;17.70;100.00
10510;BME280;5303;53.266;10.410;2023-07-31T08:07:59;100388.19;;;17.65;100.00
10510;BME280;5303;53.266;10.410;2023-07-31T08:10:24;100380.94;;;17.69;100.00
10510;BME280;5303;53.266;10.410;2023-07-31T08:12:49;100380.78;;;17.73;100.00
10510;BME280;5303;53.266;10.410;2023-07-31T08:15:15;100377.88;;;17.79;100.00
10510;BME280;5303;53.266;10.410;2023-07-31T08:17:40;100379.72;;;17.77;100.00
10510;BME280;5303;53.266;10.410;2023-07-31T08:20:06;100380.72;;;17.75;100.00
10510;BME280;5303;53.266;10.410;2023-07-31T08:22:31;100379.63;;;17.80;100.00
10510;BME280;5303;53.266;10.410;2023-07-31T08:24:57;100364.53;;;17.79;100.00
10510;BME280;5303;53.266;10.410;2023-07-31T08:27:22;100359.16;;;17.81;100.00
10510;BME280;5303;53.266;10.410;2023-07-31T08:29:47;100365.03;;;17.89;100.00
10510;BME280;5303;53.266;10.410;2023-07-31T08:32:12;100359.66;;;17.91;100.00
10510;BME280;5303;53.266;10.410;2023-07-31T08:34:38;100355.66;;;18.01;100.00
10510;BME280;5303;53.266;10.410;2023-07-31T08:37:03;100354.72;;;18.02;100.00
10510;BME280;5303;53.266;10.410;2023-07-31T08:39:28;100346.72;;;18.02;100.00
10510;BME280;5303;53.266;10.410;2023-07-31T08:41:58;100351.63;;;17.91;100.00
10510;BME280;5303;53.266;10.410;2023-07-31T08:44:24;100350.88;;;17.87;100.00
10510;BME280;5303;53.266;10.410;2023-07-31T08:46:49;100354.41;;;17.88;100.00
10510;BME280;5303;53.266;10.410;2023-07-31T08:49:17;100350.13;;;17.83;100.00
10510;BME280;5303;53.266;10.410;2023-07-31T08:51:43;100351.13;;;17.81;100.00
10510;BME280;5303;53.266;10.410;2023-07-31T08:54:09;100352.13;;;17.78;100.00
10510;BME280;5303;53.266;10.410;2023-07-31T08:56:35;100349.34;;;17.81;100.00
10510;BME280;5303;53.266;10.410;2023-07-31T08:59:02;100343.00;;;17.84;100.00
10510;BME280;5303;53.266;10.410;2023-07-31T09:01:30;100337.72;;;17.82;100.00
10510;BME280;5303;53.266;10.410;2023-07-31T09:03:58;100344.94;;;17.80;100.00
10510;BME280;5303;53.266;10.410;2023-07-31T09:06:25;100345.09;;;17.76;100.00
10510;BME280;5303;53.266;10.410;2023-07-31T09:08:52;100340.63;;;17.76;100.00
10510;BME280;5303;53.266;10.410;2023-07-31T09:11:18;100342.34;;;17.79;100.00
10510;BME280;5303;53.266;10.410;2023-07-31T09:13:45;100341.19;;;17.84;100.00
10510;BME280;5303;53.266;10.410;2023-07-31T09:16:10;100338.72;;;17.80;100.00
10510;BME280;5303;53.266;10.410;2023-07-31T09:18:55;100328.66;;;17.87;100.00
10510;BME280;5303;53.266;10.410;2023-07-31T09:21:22;100334.75;;;17.90;100.00
10510;BME280;5303;53.266;10.410;2023-07-31T09:23:48;100323.00;;;17.94;100.00
10510;BME280;5303;53.266;10.410;2023-07-31T09:26:29;100324.69;;;17.97;100.00
10510;BME280;5303;53.266;10.410;2023-07-31T09:28:55;100325.31;;;18.03;100.00
10510;BME280;5303;53.266;10.410;2023-07-31T09:31:38;100320.41;;;17.93;100.00
10510;BME280;5303;53.266;10.410;2023-07-31T09:34:04;100325.81;;;17.91;100.00
10510;BME280;5303;53.266;10.410;2023-07-31T09:36:29;100315.63;;;18.01;100.00
10510;BME280;5303;53.266;10.410;2023-07-31T09:39:01;100312.81;;;18.04;100.00
10510;BME280;5303;53.266;10.410;2023-07-31T09:41:27;100311.50;;;18.14;100.00
10510;BME280;5303;53.266;10.410;2023-07-31T09:43:53;100313.72;;;18.25;100.00
10510;BME280;5303;53.266;10.410;2023-07-31T09:46:20;100314.19;;;18.34;100.00
10510;BME280;5303;53.266;10.410;2023-07-31T09:48:45;100313.34;;;18.34;100.00
10510;BME280;5303;53.266;10.410;2023-07-31T09:51:11;100298.31;;;18.31;100.00
10510;BME280;5303;53.266;10.410;2023-07-31T09:53:36;100302.97;;;18.26;100.00
10510;BME280;5303;53.266;10.410;2023-07-31T09:56:02;100305.38;;;18.32;100.00
10510;BME280;5303;53.266;10.410;2023-07-31T09:58:28;100302.31;;;18.21;100.00
10510;BME280;5303;53.266;10.410;2023-07-31T10:00:54;100300.91;;;18.33;100.00
10510;BME280;5303;53.266;10.410;2023-07-31T10:03:21;100302.50;;;18.37;100.00
10510;BME280;5303;53.266;10.410;2023-07-31T10:05:50;100304.13;;;18.41;100.00
10510;BME280;5303;53.266;10.410;2023-07-31T10:08:17;100298.31;;;18.52;100.00
10510;BME280;5303;53.266;10.410;2023-07-31T10:10:44;100296.19;;;18.39;100.00
10510;BME280;5303;53.266;10.410;2023-07-31T10:13:10;100293.22;;;18.46;100.00
10510;BME280;5303;53.266;10.410;2023-07-31T10:15:36;100296.75;;;18.46;100.00
10510;BME280;5303;53.266;10.410;2023-07-31T10:18:02;100292.28;;;18.47;100.00
10510;BME280;5303;53.266;10.410;2023-07-31T10:20:28;100297.53;;;18.50;100.00
10510;BME280;5303;53.266;10.410;2023-07-31T10:22:54;100290.16;;;18.55;100.00
10510;BME280;5303;53.266;10.410;2023-07-31T10:25:21;100291.53;;;18.65;100.00
10510;BME280;5303;53.266;10.410;2023-07-31T10:27:47;100286.03;;;18.68;100.00
10510;BME280;5303;53.266;10.410;2023-07-31T10:30:17;100289.38;;;18.73;100.00
10510;BME280;5303;53.266;10.410;2023-07-31T10:32:45;100285.63;;;18.77;100.00
10510;BME280;5303;53.266;10.410;2023-07-31T10:35:11;100266.06;;;18.95;100.00
10510;BME280;5303;53.266;10.410;2023-07-31T10:37:39;100272.22;;;18.97;100.00
10510;BME280;5303;53.266;10.410;2023-07-31T10:40:06;100265.38;;;19.11;100.00
10510;BME280;5303;53.266;10.410;2023-07-31T10:42:33;100260.66;;;18.97;100.00
10510;BME280;5303;53.266;10.410;2023-07-31T10:45:01;100266.59;;;19.04;100.00
10510;BME280;5303;53.266;10.410;2023-07-31T10:47:30;100269.91;;;19.09;100.00
10510;BME280;5303;53.266;10.410;2023-07-31T10:50:22;100266.22;;;19.30;100.00
10510;BME280;5303;53.266;10.410;2023-07-31T10:52:51;100256.75;;;19.23;100.00
10510;BME280;5303;53.266;10.410;2023-07-31T10:55:42;100249.25;;;19.12;100.00
10510;BME280;5303;53.266;10.410;2023-07-31T10:58:11;100253.22;;;19.04;100.00
10510;BME280;5303;53.266;10.410;2023-07-31T11:00:41;100244.91;;;18.91;100.00
10510;BME280;5303;53.266;10.410;2023-07-31T11:05:47;100241.44;;;19.08;100.00
10510;BME280;5303;53.266;10.410;2023-07-31T11:10:37;100246.22;;;19.01;100.00
10510;BME280;5303;53.266;10.410;2023-07-31T11:13:04;100242.31;;;19.08;100.00
10510;BME280;5303;53.266;10.410;2023-07-31T11:15:29;100243.97;;;19.11;100.00
10510;BME280;5303;53.266;10.410;2023-07-31T11:17:55;100249.97;;;19.16;100.00
10510;BME280;5303;53.266;10.410;2023-07-31T11:20:24;100241.16;;;19.14;100.00
10510;BME280;5303;53.266;10.410;2023-07-31T11:22:49;100237.69;;;19.12;100.00
10510;BME280;5303;53.266;10.410;2023-07-31T11:25:14;100233.22;;;19.12;100.00
10510;BME280;5303;53.266;10.410;2023-07-31T11:27:40;100232.69;;;19.23;100.00
10510;BME280;5303;53.266;10.410;2023-07-31T11:30:06;100236.00;;;19.28;100.00
10510;BME280;5303;53.266;10.410;2023-07-31T11:32:32;100223.63;;;19.44;100.00
10510;BME280;5303;53.266;10.410;2023-07-31T11:34:57;100225.84;;;19.53;100.00
10510;BME280;5303;53.266;10.410;2023-07-31T11:37:23;100221.75;;;19.46;100.00
10510;BME280;5303;53.266;10.410;2023-07-31T11:40:01;100223.84;;;19.59;100.00
10510;BME280;5303;53.266;10.410;2023-07-31T11:42:27;100224.00;;;19.55;100.00
10510;BME280;5303;53.266;10.410;2023-07-31T11:44:52;100213.91;;;19.61;100.00
10510;BME280;5303;53.266;10.410;2023-07-31T11:47:17;100213.91;;;19.61;100.00
10510;BME280;5303;53.266;10.410;2023-07-31T11:49:43;100206.53;;;19.66;100.00
10510;BME280;5303;53.266;10.410;2023-07-31T11:52:09;100208.72;;;19.58;100.00
10510;BME280;5303;53.266;10.410;2023-07-31T11:54:36;100210.41;;;19.41;100.00
10510;BME280;5303;53.266;10.410;2023-07-31T11:57:02;100212.34;;;19.38;100.00
10510;BME280;5303;53.266;10.410;2023-07-31T11:59:27;100210.38;;;19.24;100.00
10510;BME280;5303;53.266;10.410;2023-07-31T12:01:53;100206.91;;;19.22;100.00
10510;BME280;5303;53.266;10.410;2023-07-31T12:04:19;100201.69;;;19.19;100.00
10510;BME280;5303;53.266;10.410;2023-07-31T12:06:49;100203.13;;;19.26;100.00
10510;BME280;5303;53.266;10.410;2023-07-31T12:09:17;100205.28;;;19.18;100.00
10510;BME280;5303;53.266;10.410;2023-07-31T12:11:46;100208.47;;;19.26;100.00
10510;BME280;5303;53.266;10.410;2023-07-31T12:14:26;100197.59;;;19.12;100.00
10510;BME280;5303;53.266;10.410;2023-07-31T12:16:56;100196.91;;;19.25;100.00
10510;BME280;5303;53.266;10.410;2023-07-31T12:19:22;100199.50;;;19.27;100.00
10510;BME280;5303;53.266;10.410;2023-07-31T12:21:49;100202.06;;;19.11;100.00
10510;BME280;5303;53.266;10.410;2023-07-31T12:24:14;100204.16;;;19.05;100.00
10510;BME280;5303;53.266;10.410;2023-07-31T12:26:40;100194.06;;;19.11;100.00
10510;BME280;5303;53.266;10.410;2023-07-31T12:29:07;100197.94;;;19.23;100.00
10510;BME280;5303;53.266;10.410;2023-07-31T12:31:33;100192.25;;;19.29;100.00
10510;BME280;5303;53.266;10.410;2023-07-31T12:33:59;100193.72;;;19.36;100.00
10510;BME280;5303;53.266;10.410;2023-07-31T12:36:24;100194.38;;;19.41;100.00
10510;BME280;5303;53.266;10.410;2023-07-31T12:38:51;100191.97;;;19.35;100.00
10510;BME280;5303;53.266;10.410;2023-07-31T12:41:17;100181.28;;;19.35;100.00
10510;BME280;5303;53.266;10.410;2023-07-31T12:43:44;100187.00;;;19.27;100.00
10510;BME280;5303;53.266;10.410;2023-07-31T12:46:10;100183.28;;;19.30;100.00
10510;BME280;5303;53.266;10.410;2023-07-31T12:48:36;100184.13;;;19.32;100.00